Time;durP1;ratioP1;P1;durP2;ratioP2;P2;SDS_P1;SDS_P2;PMS_P1;PMS_P2;Temp;Humidity;BMP_temperature;BMP_pressure;BME280_temperature;BME280_humidity;BME280_pressure;Samples;Min_cycle;Max_cycle;Signal;HPM_P1;HPM_P2
2022/11/27 00:00:56;;;;;;;26.15;4.68;;;11.00;99.90;;;10.15;100.00;101730.78;4251949;27;20038;-75
2022/11/27 00:02:57;;;;;;;27.77;6.35;;;11.00;99.90;;;10.16;100.00;101732.44;4219683;28;20035;-75
2022/11/27 00:04:57;;;;;;;24.50;4.50;;;11.00;99.90;;;10.25;100.00;101742.19;4219175;28;20483;-75
2022/11/27 00:06:58;;;;;;;21.17;4.18;;;11.00;99.90;;;10.17;100.00;101742.03;4218358;28;20020;-75
2022/11/27 00:09:03;;;;;;;18.80;4.70;;;11.00;99.90;;;10.21;100.00;101741.66;4219412;28;20027;-75
2022/11/27 00:11:10;;;;;;;19.17;5.65;;;11.00;99.90;;;10.17;100.00;101742.03;4219119;28;20024;-75
2022/11/27 00:13:11;;;;;;;18.30;4.35;;;11.10;99.90;;;10.22;100.00;101747.75;4219530;28;20509;-75
2022/11/27 00:15:12;;;;;;;25.17;4.68;;;11.10;99.90;;;10.18;100.00;101741.91;4218439;28;20031;-75
2022/11/27 00:17:13;;;;;;;18.00;4.63;;;11.10;99.90;;;10.20;100.00;101739.13;4218539;28;20085;-75
2022/11/27 00:19:14;;;;;;;16.48;4.13;;;11.00;99.90;;;10.29;100.00;101738.34;4218065;28;20484;-75
2022/11/27 00:21:23;;;;;;;16.05;3.92;;;11.00;99.90;;;10.31;100.00;101741.69;4219185;28;20051;-75
2022/11/27 00:23:24;;;;;;;12.48;4.00;;;11.10;99.90;;;10.28;100.00;101748.06;4218963;28;20027;-75
2022/11/27 00:25:25;;;;;;;12.88;3.55;;;11.10;99.90;;;10.38;100.00;101748.97;4219273;28;20023;-75
2022/11/27 00:27:26;;;;;;;14.13;3.40;;;11.20;99.90;;;10.34;100.00;101744.91;4252379;27;20019;-75
2022/11/27 00:29:28;;;;;;;10.25;2.72;;;11.10;99.90;;;10.36;100.00;101757.97;4218017;28;20063;-74
2022/11/27 00:31:32;;;;;;;15.85;4.20;;;11.20;99.90;;;10.39;100.00;101749.81;4219392;28;20020;-74
2022/11/27 00:33:33;;;;;;;9.68;3.42;;;11.20;99.90;;;10.38;100.00;101750.75;4219387;28;20043;-75
2022/11/27 00:35:34;;;;;;;13.63;2.50;;;11.20;99.90;;;10.48;100.00;101757.75;4219186;28;20028;-74
2022/11/27 00:37:35;;;;;;;10.75;2.97;;;11.20;99.90;;;10.44;100.00;101759.00;4251581;27;20023;-75
2022/11/27 00:39:36;;;;;;;8.88;2.80;;;11.20;99.90;;;10.49;100.00;101755.94;4219002;28;20433;-75
2022/11/27 00:41:37;;;;;;;8.30;2.72;;;11.30;99.90;;;10.61;100.00;101756.69;4219061;28;20024;-75
2022/11/27 00:43:38;;;;;;;8.20;2.40;;;11.30;99.90;;;10.50;100.00;101747.91;4219075;28;20549;-75
2022/11/27 00:45:39;;;;;;;4.18;1.80;;;11.30;99.90;;;10.54;100.00;101751.16;4219314;28;20055;-74
2022/11/27 00:47:40;;;;;;;7.95;2.30;;;11.40;99.90;;;10.60;100.00;101745.34;4218508;28;20369;-74
2022/11/27 00:49:41;;;;;;;5.47;1.60;;;11.40;99.90;;;10.60;100.00;101741.88;4251167;27;20101;-75
2022/11/27 00:51:42;;;;;;;8.18;2.08;;;11.40;99.90;;;10.61;100.00;101740.88;4219019;28;20093;-75
2022/11/27 00:53:43;;;;;;;8.48;2.28;;;11.40;99.90;;;10.63;100.00;101742.44;4251428;27;20027;-75
2022/11/27 00:55:47;;;;;;;8.00;2.13;;;11.40;99.90;;;10.73;100.00;101742.47;4251399;27;20110;-75
2022/11/27 00:57:48;;;;;;;7.63;2.10;;;11.50;99.90;;;10.65;100.00;101737.84;4218945;28;20028;-75
2022/11/27 00:59:49;;;;;;;4.70;1.48;;;11.50;99.90;;;10.71;100.00;101739.97;4218876;28;20024;-75
2022/11/27 01:01:49;;;;;;;6.30;1.55;;;11.50;99.90;;;10.72;100.00;101746.91;4218725;28;20028;-75
2022/11/27 01:03:50;;;;;;;6.28;1.65;;;11.50;99.90;;;10.70;100.00;101740.94;4251521;27;20075;-75
2022/11/27 01:05:51;;;;;;;2.75;1.10;;;11.50;99.90;;;10.76;100.00;101744.84;4217485;28;20043;-74
2022/11/27 01:07:52;;;;;;;4.80;1.42;;;11.60;99.90;;;10.75;100.00;101735.25;4217372;28;20012;-75
2022/11/27 01:09:53;;;;;;;5.78;1.17;;;11.60;99.90;;;10.80;100.00;101741.81;4251274;27;20031;-75
2022/11/27 01:11:54;;;;;;;7.38;1.60;;;11.60;99.90;;;10.81;100.00;101743.47;4218489;28;20024;-75
2022/11/27 01:14:00;;;;;;;4.10;1.15;;;11.60;99.90;;;10.84;100.00;101742.38;4251697;27;20034;-75
2022/11/27 01:16:11;;;;;;;5.63;1.48;;;11.60;99.90;;;10.84;100.00;101752.94;4218827;28;20070;-75
2022/11/27 01:18:12;;;;;;;3.20;1.05;;;11.60;99.90;;;10.85;100.00;101751.97;4217534;28;20016;-75
2022/11/27 01:20:13;;;;;;;2.88;0.90;;;11.70;99.90;;;10.87;100.00;101729.72;4251377;28;20027;-75
2022/11/27 01:22:13;;;;;;;3.50;0.98;;;11.70;99.90;;;10.87;100.00;101731.56;4218217;28;20412;-75
2022/11/27 01:24:16;;;;;;;3.85;1.00;;;11.70;99.90;;;10.91;100.00;101730.31;4218718;28;20050;-75
2022/11/27 01:26:17;;;;;;;3.35;0.80;;;11.70;99.90;;;10.91;100.00;101720.59;4251167;27;20501;-75
2022/11/27 01:28:20;;;;;;;3.78;0.90;;;11.70;99.90;;;10.99;100.00;101731.31;4251318;27;20023;-75
2022/11/27 01:30:21;;;;;;;4.70;0.82;;;11.80;99.90;;;10.99;100.00;101726.03;4251315;28;20031;-75
2022/11/27 01:32:22;;;;;;;3.13;1.00;;;11.80;99.90;;;10.99;100.00;101719.94;4218625;28;20016;-75
2022/11/27 01:34:23;;;;;;;4.78;0.93;;;11.80;99.90;;;11.02;100.00;101727.59;4251008;28;20035;-75
2022/11/27 01:36:25;;;;;;;5.60;0.98;;;11.80;99.90;;;11.01;100.00;101716.19;4218653;28;20028;-75
2022/11/27 01:38:27;;;;;;;2.78;0.73;;;11.80;99.90;;;11.02;100.00;101717.03;4218294;28;20028;-75
2022/11/27 01:40:28;;;;;;;4.28;1.00;;;11.80;99.90;;;11.08;100.00;101713.81;4250978;28;20028;-75
2022/11/27 01:42:29;;;;;;;6.18;1.50;;;11.90;99.90;;;11.08;100.00;101708.53;4218257;28;20039;-75
2022/11/27 01:44:30;;;;;;;7.15;1.10;;;11.90;99.90;;;11.16;100.00;101710.50;4218638;28;20042;-75
2022/11/27 01:46:37;;;;;;;6.72;1.10;;;11.90;99.90;;;11.15;100.00;101709.66;4218412;28;20595;-75
2022/11/27 01:48:37;;;;;;;5.75;1.00;;;11.90;99.90;;;11.10;100.00;101707.44;4218403;28;20020;-75
2022/11/27 01:50:39;;;;;;;3.00;0.98;;;11.90;99.90;;;11.11;100.00;101701.19;4251051;28;20472;-75
2022/11/27 01:52:47;;;;;;;5.25;1.30;;;11.90;99.90;;;11.15;100.00;101695.63;4218329;28;20020;-75
2022/11/27 01:55:26;;;;;;;6.20;1.60;;;12.00;99.90;;;11.18;100.00;101698.00;4250439;28;20037;-75
2022/11/27 01:57:43;;;;;;;4.88;1.38;;;12.00;99.90;;;11.18;100.00;101692.72;4247048;28;20030;-75
2022/11/27 01:59:47;;;;;;;9.45;1.63;;;12.00;99.90;;;11.14;100.00;101678.94;4218749;28;20032;-75
2022/11/27 02:01:47;;;;;;;5.55;1.60;;;12.00;99.90;;;11.17;100.00;101683.13;4220402;28;20484;-75
2022/11/27 02:03:49;;;;;;;5.15;1.15;;;12.00;99.90;;;11.20;100.00;101688.16;4254371;27;20062;-75
2022/11/27 02:05:49;;;;;;;8.70;1.80;;;12.00;99.90;;;11.17;100.00;101683.94;4220206;28;20020;-75
2022/11/27 02:07:52;;;;;;;6.70;1.50;;;12.00;99.90;;;11.19;100.00;101681.19;4254085;27;20030;-75
2022/11/27 02:09:53;;;;;;;8.07;1.60;;;12.00;99.90;;;11.23;100.00;101693.16;4253885;27;20026;-75
2022/11/27 02:12:32;;;;;;;6.57;1.50;;;12.00;99.90;;;11.34;100.00;101685.09;4208592;28;20028;-75
2022/11/27 02:15:01;;;;;;;6.60;1.67;;;12.00;99.90;;;11.24;100.00;101678.97;4220407;28;20042;-75
2022/11/27 02:17:09;;;;;;;9.93;1.92;;;12.00;99.90;;;11.25;100.00;101685.91;4220504;28;20028;-75
2022/11/27 02:20:02;;;;;;;6.35;1.70;;;12.10;99.90;;;11.28;100.00;101675.09;4221140;28;20118;-75
2022/11/27 02:22:23;;;;;;;7.78;1.52;;;12.10;99.90;;;11.32;100.00;101671.19;4220767;28;20055;-75
2022/11/27 02:24:49;;;;;;;6.70;1.55;;;12.10;99.90;;;11.33;100.00;101668.41;4220319;28;20102;-75
2022/11/27 02:27:26;;;;;;;8.55;1.92;;;12.10;99.90;;;11.28;100.00;101662.72;4220236;28;20395;-75
2022/11/27 02:29:32;;;;;;;8.25;1.70;;;12.10;99.90;;;11.36;100.00;101662.00;4220300;28;20028;-75
2022/11/27 02:32:05;;;;;;;4.75;1.50;;;12.10;99.90;;;11.31;100.00;101653.69;4219975;28;20089;-75
2022/11/27 02:34:28;;;;;;;4.78;1.83;;;12.10;99.90;;;11.34;100.00;101653.41;4204109;28;20029;-75
2022/11/27 02:36:32;;;;;;;8.45;1.52;;;12.10;99.90;;;11.33;100.00;101649.06;4221181;28;20483;-75
2022/11/27 02:38:40;;;;;;;12.35;2.10;;;12.10;99.90;;;11.35;100.00;101644.50;4219778;28;20495;-75
2022/11/27 02:41:05;;;;;;;6.47;1.40;;;12.10;99.90;;;11.34;100.00;101648.94;4220935;28;20075;-75
2022/11/27 02:43:29;;;;;;;10.23;1.35;;;12.10;99.90;;;11.36;100.00;101646.16;4220167;28;20480;-75
2022/11/27 02:45:45;;;;;;;9.27;2.75;;;12.10;99.90;;;11.39;100.00;101645.88;4219917;28;20031;-75
2022/11/27 02:47:47;;;;;;;12.88;3.00;;;12.20;99.90;;;11.40;100.00;101642.28;4219757;28;20443;-75
2022/11/27 02:49:51;;;;;;;10.02;2.10;;;12.20;99.90;;;11.40;100.00;101642.28;4219804;28;20499;-75
2022/11/27 02:51:57;;;;;;;10.82;1.60;;;12.20;99.90;;;11.39;100.00;101641.44;4219688;28;20032;-75
2022/11/27 02:54:04;;;;;;;10.43;2.13;;;12.20;99.90;;;11.44;100.00;101633.91;4219575;28;20435;-75
2022/11/27 02:56:11;;;;;;;13.93;2.65;;;12.20;99.90;;;11.43;100.00;101632.28;4219658;28;20032;-75
2022/11/27 02:58:16;;;;;;;6.22;1.80;;;12.20;99.90;;;11.45;100.00;101634.75;4219687;28;20035;-75
2022/11/27 03:00:18;;;;;;;9.13;2.08;;;12.20;99.90;;;11.43;100.00;101624.34;4219413;28;20038;-75
2022/11/27 03:02:27;;;;;;;7.03;1.25;;;12.30;99.90;;;11.46;100.00;101621.41;4219285;28;20110;-75
2022/11/27 03:04:35;;;;;;;14.10;2.88;;;12.30;99.90;;;11.48;100.00;101615.97;4203361;28;20511;-75
2022/11/27 03:06:44;;;;;;;13.30;2.05;;;12.30;99.90;;;11.51;100.00;101623.63;4219580;28;20411;-75
2022/11/27 03:08:53;;;;;;;8.68;2.13;;;12.30;99.90;;;11.49;100.00;101625.59;4219099;28;20054;-75
2022/11/27 03:11:09;;;;;;;9.65;1.92;;;12.30;99.90;;;11.45;100.00;101613.63;4220137;28;20024;-75
2022/11/27 03:13:10;;;;;;;11.93;2.50;;;12.30;99.90;;;11.46;100.00;101620.59;4219024;28;20442;-75
2022/11/27 03:15:12;;;;;;;12.63;2.38;;;12.30;99.90;;;11.47;100.00;101619.59;4219164;28;20024;-75
2022/11/27 03:17:53;;;;;;;12.27;2.17;;;12.30;99.90;;;11.50;100.00;101614.03;4253214;27;20055;-75
2022/11/27 03:20:28;;;;;;;11.60;2.47;;;12.30;99.90;;;11.52;100.00;101609.47;4251067;27;20027;-75
2022/11/27 03:22:30;;;;;;;13.85;2.75;;;12.30;99.90;;;11.60;100.00;101601.66;4227785;28;20131;-75
2022/11/27 03:24:34;;;;;;;15.70;3.38;;;12.40;99.90;;;11.58;100.00;101590.41;4219240;28;20051;-75
2022/11/27 03:26:36;;;;;;;11.95;2.33;;;12.40;99.90;;;11.57;100.00;101596.66;4252703;27;20066;-75
2022/11/27 03:28:38;;;;;;;8.05;2.53;;;12.40;99.90;;;11.56;100.00;101613.47;4252889;27;20019;-75
2022/11/27 03:30:40;;;;;;;13.02;4.03;;;12.40;99.90;;;11.59;100.00;101613.19;4220264;28;20506;-75
2022/11/27 03:32:41;;;;;;;12.02;2.15;;;12.40;99.90;;;11.58;100.00;101611.53;4252856;27;20034;-75
2022/11/27 03:34:43;;;;;;;11.82;2.50;;;12.40;99.90;;;11.59;100.00;101610.53;4218836;28;20028;-75
2022/11/27 03:36:45;;;;;;;11.32;2.38;;;12.40;99.90;;;11.58;100.00;101607.09;4252893;27;20467;-75
2022/11/27 03:38:48;;;;;;;11.77;2.30;;;12.40;99.90;;;11.62;100.00;101607.63;4218599;28;20028;-75
2022/11/27 03:41:15;;;;;;;16.60;2.70;;;12.40;99.90;;;11.69;100.00;101611.38;4220055;28;20020;-75
2022/11/27 03:43:26;;;;;;;7.80;2.20;;;12.40;99.90;;;11.62;100.00;101607.63;4251573;27;20023;-75
2022/11/27 03:45:35;;;;;;;11.98;2.50;;;12.40;99.90;;;11.59;100.00;101605.25;4220087;28;20028;-75
2022/11/27 03:47:54;;;;;;;9.70;2.22;;;12.40;99.90;;;11.63;100.00;101611.94;4251129;27;20019;-75
2022/11/27 03:50:23;;;;;;;11.73;2.05;;;12.40;99.90;;;11.64;100.00;101597.75;4218623;28;20117;-75
2022/11/27 03:52:30;;;;;;;9.32;2.00;;;12.40;99.90;;;11.67;100.00;101589.53;4218376;28;20028;-75
2022/11/27 03:54:51;;;;;;;9.30;2.40;;;12.40;99.90;;;11.64;100.00;101589.81;4219991;28;20540;-75
2022/11/27 03:57:08;;;;;;;12.18;2.33;;;12.40;99.90;;;11.63;100.00;101598.72;4250260;27;20058;-75
2022/11/27 03:59:26;;;;;;;14.30;2.35;;;12.40;99.90;;;11.66;100.00;101591.34;4250866;27;20074;-75
2022/11/27 04:01:28;;;;;;;11.23;2.53;;;12.40;99.90;;;11.69;100.00;101590.22;4219794;28;20071;-75
2022/11/27 04:03:30;;;;;;;12.25;2.67;;;12.40;99.90;;;11.68;100.00;101584.09;4252589;27;20034;-75
2022/11/27 04:05:31;;;;;;;13.07;2.15;;;12.40;99.90;;;11.67;100.00;101586.91;4252576;27;20031;-75
2022/11/27 04:07:31;;;;;;;12.35;2.13;;;12.40;99.90;;;11.67;100.00;101594.84;4219491;28;20499;-75
2022/11/27 04:09:32;;;;;;;12.57;2.67;;;12.40;99.90;;;11.70;100.00;101593.75;4252427;27;20011;-75
2022/11/27 04:11:33;;;;;;;8.55;2.10;;;12.40;99.90;;;11.71;100.00;101588.28;4219985;28;20036;-75
2022/11/27 04:13:34;;;;;;;14.23;2.40;;;12.50;99.90;;;11.74;100.00;101580.09;4219393;28;20110;-75
2022/11/27 04:15:35;;;;;;;16.60;3.13;;;12.50;99.90;;;11.73;100.00;101582.88;4219723;28;20066;-75
2022/11/27 04:17:36;;;;;;;13.52;2.28;;;12.50;99.90;;;11.79;100.00;101580.50;4219391;28;20496;-75
2022/11/27 04:19:37;;;;;;;12.45;1.90;;;12.50;99.90;;;11.72;100.00;101574.13;4218780;28;20080;-75
2022/11/27 04:21:38;;;;;;;8.98;1.88;;;12.50;99.90;;;11.75;100.00;101573.00;4234624;28;20044;-75
2022/11/27 04:23:39;;;;;;;11.98;1.85;;;12.60;99.90;;;11.73;100.00;101565.22;4219041;28;20572;-75
2022/11/27 04:25:40;;;;;;;8.05;1.52;;;12.50;99.90;;;11.79;100.00;101575.22;4219385;28;20373;-75
2022/11/27 04:27:41;;;;;;;10.52;1.50;;;12.60;99.90;;;11.83;100.00;101573.94;4219294;28;20028;-75
2022/11/27 04:29:42;;;;;;;5.80;1.70;;;12.60;99.90;;;11.85;100.00;101571.16;4219150;28;20095;-75
2022/11/27 04:31:43;;;;;;;6.65;1.38;;;12.60;99.90;;;11.85;100.00;101576.44;4219311;28;20028;-75
2022/11/27 04:33:44;;;;;;;14.68;2.10;;;12.60;99.90;;;11.76;100.00;101564.94;4219295;28;20024;-75
2022/11/27 04:35:45;;;;;;;5.55;1.25;;;12.60;99.90;;;11.82;100.00;101572.28;4251863;27;20038;-75
2022/11/27 04:37:46;;;;;;;6.90;1.30;;;12.60;99.90;;;11.79;100.00;101572.56;4218808;28;20511;-75
2022/11/27 04:39:46;;;;;;;7.13;1.20;;;12.60;99.90;;;11.84;100.00;101562.41;4217899;28;20024;-75
2022/11/27 04:41:48;;;;;;;6.97;1.60;;;12.60;99.90;;;11.85;100.00;101571.16;4219048;28;20032;-75
2022/11/27 04:43:48;;;;;;;4.72;1.48;;;12.60;99.90;;;11.81;100.00;101570.63;4217875;28;20016;-75
2022/11/27 04:45:49;;;;;;;7.25;1.52;;;12.60;99.90;;;11.83;100.00;101568.66;4251559;27;20030;-75
2022/11/27 04:47:50;;;;;;;9.13;1.17;;;12.60;99.90;;;11.82;100.00;101571.44;4217901;28;20461;-75
2022/11/27 04:49:51;;;;;;;6.47;1.75;;;12.60;99.90;;;11.87;100.00;101577.13;4251878;27;20027;-75
2022/11/27 04:51:52;;;;;;;3.05;1.00;;;12.60;99.90;;;11.83;100.00;101570.44;4218721;28;20035;-74
2022/11/27 04:53:53;;;;;;;5.55;1.17;;;12.60;99.90;;;11.87;100.00;101574.50;4218838;28;20027;-74
2022/11/27 04:55:53;;;;;;;5.47;1.10;;;12.70;99.90;;;11.90;100.00;101588.25;4251685;27;20027;-75
2022/11/27 04:57:54;;;;;;;5.22;1.38;;;12.60;99.90;;;11.90;100.00;101582.97;4218922;28;20036;-75
2022/11/27 04:59:55;;;;;;;7.28;1.00;;;12.70;99.90;;;11.94;100.00;101586.16;4218836;28;20487;-75
2022/11/27 05:01:56;;;;;;;5.68;1.27;;;12.70;99.90;;;11.98;100.00;101579.59;4218410;28;20028;-75
2022/11/27 05:03:57;;;;;;;5.93;1.45;;;12.70;99.90;;;12.00;100.00;101588.22;4218845;28;20035;-75
2022/11/27 05:05:58;;;;;;;4.40;1.30;;;12.70;99.90;;;11.96;100.00;101576.25;4218803;28;20060;-75
2022/11/27 05:07:59;;;;;;;4.25;1.35;;;12.80;99.90;;;12.00;100.00;101578.50;4251290;27;20464;-75
2022/11/27 05:09:59;;;;;;;4.90;1.73;;;12.80;99.90;;;12.00;100.00;101572.38;4218665;28;20035;-75
2022/11/27 05:12:00;;;;;;;2.95;0.80;;;12.70;99.90;;;12.11;100.00;101562.44;4218719;28;20034;-75
2022/11/27 05:14:21;;;;;;;7.63;1.13;;;12.80;99.90;;;12.07;100.00;101554.91;4217461;28;20024;-74
2022/11/27 05:16:22;;;;;;;7.53;1.20;;;12.80;99.90;;;12.05;100.00;101555.09;4218783;28;20020;-75
2022/11/27 05:18:23;;;;;;;9.18;1.65;;;12.80;99.90;;;12.05;100.00;101549.78;4217743;28;20031;-75
2022/11/27 05:20:24;;;;;;;11.57;1.45;;;12.80;99.90;;;12.08;100.00;101536.28;4217250;28;20027;-75
2022/11/27 05:22:25;;;;;;;2.88;0.95;;;12.90;99.90;;;12.08;100.00;101549.50;4218165;28;20051;-75
2022/11/27 05:24:28;;;;;;;5.63;0.80;;;12.90;99.90;;;12.08;100.00;101538.09;4234151;28;20020;-75
2022/11/27 05:26:28;;;;;;;4.63;1.15;;;12.90;99.90;;;12.11;100.00;101533.34;4218430;28;20496;-75
2022/11/27 05:28:29;;;;;;;8.68;1.20;;;12.90;99.90;;;12.14;100.00;101537.50;4251343;27;20045;-75
2022/11/27 05:30:30;;;;;;;7.15;1.25;;;12.90;99.90;;;12.10;100.00;101530.81;4218752;28;20024;-75
2022/11/27 05:32:31;;;;;;;3.75;0.80;;;12.90;99.90;;;12.08;100.00;101525.69;4218611;28;20024;-75
2022/11/27 05:34:32;;;;;;;4.03;1.17;;;12.90;99.90;;;12.15;100.00;101520.66;4217758;28;20020;-75
2022/11/27 05:36:33;;;;;;;5.20;1.40;;;12.90;99.90;;;12.15;100.00;101523.31;4218640;28;20024;-75
2022/11/27 05:38:34;;;;;;;5.88;0.98;;;12.90;99.90;;;12.15;100.00;101539.19;4250970;28;20527;-75
2022/11/27 05:40:35;;;;;;;4.15;1.30;;;12.90;99.90;;;12.17;100.00;101538.03;4218381;28;20031;-75
2022/11/27 05:42:36;;;;;;;7.30;1.58;;;12.90;99.90;;;12.15;100.00;101534.72;4218280;28;20389;-75
2022/11/27 05:44:37;;;;;;;4.85;1.17;;;13.00;99.90;;;12.19;100.00;101536.06;4218432;28;20012;-75
2022/11/27 05:46:38;;;;;;;5.70;1.05;;;13.00;99.90;;;12.21;100.00;101539.41;4218424;28;20047;-75
2022/11/27 05:48:39;;;;;;;9.07;1.58;;;13.00;99.90;;;12.21;100.00;101538.59;4218337;28;20020;-75
2022/11/27 05:50:40;;;;;;;7.95;2.10;;;13.00;99.90;;;12.22;100.00;101534.94;4218225;28;20035;-75
2022/11/27 05:52:41;;;;;;;3.88;1.10;;;13.00;99.90;;;12.24;100.00;101533.00;4218404;28;20020;-75
2022/11/27 05:54:41;;;;;;;8.80;1.60;;;13.00;99.90;;;12.27;100.00;101532.72;4217107;28;20077;-75
2022/11/27 05:56:42;;;;;;;10.07;1.80;;;13.00;99.90;;;12.25;100.00;101533.81;4218280;28;20024;-75
2022/11/27 05:58:46;;;;;;;7.57;1.70;;;13.00;99.90;;;12.25;100.00;101528.53;4250817;28;20042;-75
2022/11/27 06:00:47;;;;;;;14.90;2.80;;;13.00;99.90;;;12.32;100.00;101541.03;4233724;28;20117;-75
2022/11/27 06:02:47;;;;;;;13.98;2.40;;;13.10;99.90;;;12.29;100.00;101530.75;4218401;28;20032;-75
2022/11/27 06:04:48;;;;;;;10.52;2.03;;;13.10;99.90;;;12.33;100.00;101536.56;4218222;28;20024;-75
2022/11/27 06:06:49;;;;;;;12.07;2.92;;;13.10;99.90;;;12.29;100.00;101535.19;4217853;28;20020;-75
2022/11/27 06:08:50;;;;;;;13.05;2.45;;;13.10;99.90;;;12.36;100.00;101534.47;4218405;28;20016;-75
2022/11/27 06:10:51;;;;;;;16.40;2.75;;;13.10;99.90;;;12.40;100.00;101527.03;4218421;28;20024;-75
2022/11/27 06:12:52;;;;;;;18.83;3.80;;;13.10;99.90;;;12.43;100.00;101518.81;4218185;28;20024;-75
2022/11/27 06:14:52;;;;;;;19.50;4.20;;;13.20;99.90;;;12.43;100.00;101517.00;4218145;28;20483;-75
2022/11/27 06:16:53;;;;;;;13.20;2.80;;;13.20;99.90;;;12.45;100.00;101511.56;4218044;28;20055;-75
2022/11/27 06:18:55;;;;;;;11.50;3.63;;;13.20;99.90;;;12.44;100.00;101513.38;4217412;28;20024;-75
2022/11/27 06:20:56;;;;;;;15.07;3.25;;;13.20;99.90;;;12.47;100.00;101506.97;4217939;28;20024;-75
2022/11/27 06:22:57;;;;;;;15.95;3.00;;;13.20;99.90;;;12.40;100.00;101498.78;4250692;28;20031;-75
2022/11/27 06:24:58;;;;;;;12.02;2.28;;;13.20;99.90;;;12.45;100.00;101503.63;4200365;28;20411;-75
2022/11/27 06:26:59;;;;;;;11.85;3.08;;;13.20;99.90;;;12.48;100.00;101500.69;4207450;28;20024;-75
2022/11/27 06:29:00;;;;;;;10.40;2.80;;;13.20;99.90;;;12.58;100.00;101506.72;4250835;28;20394;-75
2022/11/27 06:31:09;;;;;;;15.85;2.30;;;13.30;99.90;;;12.49;100.00;101499.69;4233510;28;20027;-75
2022/11/27 06:33:10;;;;;;;9.93;2.20;;;13.20;99.90;;;12.54;100.00;101490.34;4218155;28;20078;-75
2022/11/27 06:35:11;;;;;;;12.90;2.42;;;13.30;99.90;;;12.50;100.00;101478.38;4250915;28;20023;-75
2022/11/27 06:37:12;;;;;;;10.35;2.65;;;13.30;99.90;;;12.50;100.00;101478.38;4217976;28;20126;-75
2022/11/27 06:39:12;;;;;;;13.60;2.50;;;13.30;99.90;;;12.51;100.00;101489.81;4218245;28;20038;-75
2022/11/27 06:41:19;;;;;;;12.60;1.92;;;13.30;99.90;;;12.48;100.00;101476.88;4217703;28;20024;-75
2022/11/27 06:43:20;;;;;;;12.52;2.88;;;13.30;99.90;;;12.52;100.00;101479.06;4250727;28;20486;-75
2022/11/27 06:45:21;;;;;;;17.17;2.92;;;13.30;99.90;;;12.55;100.00;101485.84;4250610;27;20051;-75
2022/11/27 06:47:22;;;;;;;15.43;2.38;;;13.30;99.90;;;12.57;100.00;101482.06;4218311;28;20387;-75
2022/11/27 06:49:23;;;;;;;22.33;3.72;;;13.30;99.90;;;12.54;100.00;101470.97;4253692;27;20027;-75
2022/11/27 06:51:27;;;;;;;15.55;3.38;;;13.30;99.90;;;12.53;100.00;101464.84;4220989;28;20483;-75
2022/11/27 06:53:30;;;;;;;8.32;2.08;;;13.30;99.90;;;12.54;100.00;101476.28;4253156;27;20023;-75
2022/11/27 06:55:31;;;;;;;9.63;2.45;;;13.30;99.90;;;12.55;100.00;101469.97;4253540;27;20058;-75
2022/11/27 06:57:31;;;;;;;13.23;2.28;;;13.30;99.90;;;12.53;100.00;101464.00;4220827;28;20028;-75
2022/11/27 06:59:32;;;;;;;13.13;1.80;;;13.30;99.90;;;12.59;100.00;101468.72;4253553;27;20035;-75
2022/11/27 07:01:33;;;;;;;12.32;1.90;;;13.30;99.90;;;12.60;100.00;101475.69;4220616;28;20027;-75
2022/11/27 07:03:34;;;;;;;8.40;2.38;;;13.30;99.90;;;12.62;100.00;101473.69;4220624;28;20103;-75
2022/11/27 07:05:36;;;;;;;8.32;1.92;;;13.30;99.90;;;12.58;100.00;101472.31;4220628;28;20028;-75
2022/11/27 07:07:37;;;;;;;13.32;1.90;;;13.30;99.90;;;12.57;100.00;101465.38;4253179;27;20031;-75
2022/11/27 07:09:37;;;;;;;9.48;2.28;;;13.40;99.90;;;12.57;100.00;101460.91;4253455;27;20162;-75
2022/11/27 07:11:39;;;;;;;9.15;1.80;;;13.40;99.90;;;12.56;100.00;101459.25;4220510;28;20028;-75
2022/11/27 07:13:40;;;;;;;7.15;1.80;;;13.40;99.90;;;12.53;100.00;101446.31;4253278;27;20026;-75
2022/11/27 07:15:41;;;;;;;5.68;1.20;;;13.40;99.90;;;12.54;100.00;101455.94;4220484;28;20024;-75
2022/11/27 07:17:42;;;;;;;6.03;1.40;;;13.40;99.90;;;12.56;100.00;101450.47;4252259;27;20053;-75
2022/11/27 07:19:43;;;;;;;5.88;1.40;;;13.40;99.90;;;12.56;100.00;101453.13;4220374;28;20028;-75
2022/11/27 07:21:44;;;;;;;4.47;1.38;;;13.30;99.90;;;12.56;100.00;101453.13;4219979;28;20055;-75
2022/11/27 07:23:45;;;;;;;7.07;1.63;;;13.40;99.90;;;12.61;100.00;101461.44;4253275;27;20019;-74
2022/11/27 07:25:46;;;;;;;6.55;1.65;;;13.40;99.90;;;12.58;100.00;101461.75;4253200;27;20023;-75
2022/11/27 07:27:47;;;;;;;8.27;1.83;;;13.40;99.90;;;12.57;100.00;101460.09;4220384;28;20482;-75
2022/11/27 07:29:48;;;;;;;5.45;1.20;;;13.40;99.90;;;12.56;100.00;101463.72;4218996;28;20056;-74
2022/11/27 07:31:50;;;;;;;11.10;1.65;;;13.30;99.90;;;12.53;100.00;101453.44;4219210;28;20035;-75
2022/11/27 07:33:51;;;;;;;6.88;1.52;;;13.40;99.90;;;12.55;100.00;101457.59;4252709;27;20055;-75
2022/11/27 07:36:04;;;;;;;8.70;1.55;;;13.40;99.90;;;12.56;100.00;101455.78;4252894;27;20031;-75
2022/11/27 07:38:05;;;;;;;8.52;1.70;;;13.40;99.90;;;12.56;100.00;101455.78;4251666;27;20037;-75
2022/11/27 07:40:06;;;;;;;6.65;2.20;;;13.40;99.90;;;12.56;100.00;101455.78;4220347;28;20020;-75
2022/11/27 07:42:07;;;;;;;6.18;1.48;;;13.40;99.90;;;12.58;100.00;101467.03;4220056;28;20032;-75
2022/11/27 07:44:08;;;;;;;5.57;1.38;;;13.40;99.90;;;12.57;100.00;101458.25;4218608;28;20411;-75
2022/11/27 07:46:17;;;;;;;7.55;2.10;;;13.40;99.90;;;12.56;100.00;101455.78;4220264;28;20486;-74
2022/11/27 07:48:18;;;;;;;5.00;1.83;;;13.40;99.90;;;12.59;100.00;101463.41;4252384;27;20518;-75
2022/11/27 07:50:19;;;;;;;9.93;1.65;;;13.40;99.90;;;12.55;100.00;101459.41;4219925;28;20074;-75
2022/11/27 07:52:20;;;;;;;5.53;1.55;;;13.30;99.90;;;12.54;100.00;101463.03;4219392;28;20024;-75
2022/11/27 07:54:21;;;;;;;6.45;1.40;;;13.40;99.90;;;12.57;100.00;101466.19;4219866;28;20106;-75
2022/11/27 07:56:22;;;;;;;3.47;1.45;;;13.40;99.90;;;12.62;100.00;101473.69;4219877;28;20099;-75
2022/11/27 07:58:23;;;;;;;6.75;1.38;;;13.40;99.90;;;12.60;100.00;101465.88;4219277;28;20024;-75
2022/11/27 08:00:24;;;;;;;5.05;1.38;;;13.40;99.90;;;12.63;100.00;101481.47;4252321;27;20583;-75
2022/11/27 08:02:25;;;;;;;6.40;1.40;;;13.40;99.90;;;12.62;100.00;101473.69;4252338;27;20054;-75
2022/11/27 08:04:26;;;;;;;4.25;1.33;;;13.40;99.90;;;12.64;100.00;101479.66;4218703;28;20543;-75
2022/11/27 08:06:27;;;;;;;5.30;1.27;;;13.40;99.90;;;12.61;100.00;101475.50;4219233;28;20073;-75
2022/11/27 08:08:28;;;;;;;4.50;1.27;;;13.40;99.90;;;12.64;100.00;101474.38;4219152;28;20027;-75
2022/11/27 08:10:36;;;;;;;5.00;1.40;;;13.40;99.90;;;12.66;100.00;101462.63;4218328;28;20035;-75
2022/11/27 08:12:37;;;;;;;5.22;1.92;;;13.40;99.90;;;12.66;100.00;101465.28;4201635;28;20028;-75
2022/11/27 08:14:38;;;;;;;6.25;1.35;;;13.50;99.90;;;12.69;100.00;101464.19;4218353;28;20046;-75
2022/11/27 08:16:40;;;;;;;4.18;1.45;;;13.50;99.90;;;12.71;100.00;101470.97;4219342;28;20023;-75
2022/11/27 08:18:41;;;;;;;3.67;1.23;;;13.50;99.90;;;12.68;100.00;101463.34;4219416;28;20026;-75
2022/11/27 08:20:42;;;;;;;3.55;1.48;;;13.50;99.90;;;12.74;100.00;101461.91;4218300;28;20426;-75
2022/11/27 08:22:42;;;;;;;5.25;1.77;;;13.50;99.90;;;12.77;100.00;101462.44;4218928;28;20048;-75
2022/11/27 08:24:44;;;;;;;3.97;2.03;;;13.50;99.90;;;12.73;100.00;101461.06;4219199;28;20035;-75
2022/11/27 08:26:44;;;;;;;5.55;2.10;;;13.50;99.90;;;12.73;100.00;101452.28;4219089;28;20385;-75
2022/11/27 08:28:45;;;;;;;3.13;1.42;;;13.50;99.90;;;12.75;100.00;101452.97;4218168;28;20032;-75